sensor_id;sensor_type;location;lat;lon;timestamp;pressure;altitude;pressure_sealevel;temperature;humidity
7178;BME280;3630;42.146;24.756;2022-07-29T00:01:38;99500.97;;;25.59;55.03
7178;BME280;3630;42.146;24.756;2022-07-29T00:04:05;99502.19;;;25.52;55.25
7178;BME280;3630;42.146;24.756;2022-07-29T00:06:32;99501.13;;;25.56;55.35
7178;BME280;3630;42.146;24.756;2022-07-29T00:08:58;99502.03;;;25.55;55.56
7178;BME280;3630;42.146;24.756;2022-07-29T00:11:25;99509.16;;;25.53;55.25
7178;BME280;3630;42.146;24.756;2022-07-29T00:13:52;99508.50;;;25.48;55.90
7178;BME280;3630;42.146;24.756;2022-07-29T00:16:19;99512.94;;;25.46;55.85
7178;BME280;3630;42.146;24.756;2022-07-29T00:18:47;99502.47;;;25.44;56.04
7178;BME280;3630;42.146;24.756;2022-07-29T00:21:14;99508.84;;;25.39;56.27
7178;BME280;3630;42.146;24.756;2022-07-29T00:23:41;99498.53;;;25.34;56.44
7178;BME280;3630;42.146;24.756;2022-07-29T00:26:08;99503.94;;;25.31;57.02
7178;BME280;3630;42.146;24.756;2022-07-29T00:28:35;99505.06;;;25.26;57.06
7178;BME280;3630;42.146;24.756;2022-07-29T00:31:01;99446.03;;;24.92;57.30
7178;BME280;3630;42.146;24.756;2022-07-29T00:33:29;99497.91;;;25.29;57.58
7178;BME280;3630;42.146;24.756;2022-07-29T00:35:57;99511.06;;;25.29;57.53
7178;BME280;3630;42.146;24.756;2022-07-29T00:38:23;99505.84;;;25.28;57.53
7178;BME280;3630;42.146;24.756;2022-07-29T00:40:50;99502.44;;;25.26;57.80
7178;BME280;3630;42.146;24.756;2022-07-29T00:43:17;99499.94;;;25.22;57.85
7178;BME280;3630;42.146;24.756;2022-07-29T00:45:44;99508.06;;;25.16;58.55
7178;BME280;3630;42.146;24.756;2022-07-29T00:48:11;99495.88;;;25.15;58.19
7178;BME280;3630;42.146;24.756;2022-07-29T00:50:38;99499.41;;;25.14;58.58
7178;BME280;3630;42.146;24.756;2022-07-29T00:53:07;99494.41;;;25.08;58.87
7178;BME280;3630;42.146;24.756;2022-07-29T00:55:34;99510.91;;;25.12;58.81
7178;BME280;3630;42.146;24.756;2022-07-29T00:58:02;99499.75;;;25.07;59.37
7178;BME280;3630;42.146;24.756;2022-07-29T01:00:30;99504.91;;;25.08;59.69
7178;BME280;3630;42.146;24.756;2022-07-29T01:02:57;99496.38;;;25.03;59.62
7178;BME280;3630;42.146;24.756;2022-07-29T01:05:26;99504.34;;;25.02;59.77
7178;BME280;3630;42.146;24.756;2022-07-29T01:07:54;99500.19;;;24.96;60.19
7178;BME280;3630;42.146;24.756;2022-07-29T01:10:24;99499.38;;;24.94;60.45
7178;BME280;3630;42.146;24.756;2022-07-29T01:12:53;99504.78;;;24.91;61.03
7178;BME280;3630;42.146;24.756;2022-07-29T01:15:21;99502.00;;;24.94;60.90
7178;BME280;3630;42.146;24.756;2022-07-29T01:17:54;99503.00;;;24.92;61.29
7178;BME280;3630;42.146;24.756;2022-07-29T01:20:29;99506.44;;;24.94;61.44
7178;BME280;3630;42.146;24.756;2022-07-29T01:23:42;99508.25;;;24.92;61.45
7178;BME280;3630;42.146;24.756;2022-07-29T01:26:35;99501.56;;;24.85;61.56
7178;BME280;3630;42.146;24.756;2022-07-29T01:29:12;99502.41;;;24.85;62.00
7178;BME280;3630;42.146;24.756;2022-07-29T01:31:43;99505.94;;;24.84;62.28
7178;BME280;3630;42.146;24.756;2022-07-29T01:34:17;99502.66;;;24.79;61.93
7178;BME280;3630;42.146;24.756;2022-07-29T01:36:48;99505.16;;;24.82;62.08
7178;BME280;3630;42.146;24.756;2022-07-29T01:39:19;99506.16;;;24.78;62.14
7178;BME280;3630;42.146;24.756;2022-07-29T01:41:50;99506.16;;;24.78;62.04
7178;BME280;3630;42.146;24.756;2022-07-29T01:44:27;99498.41;;;24.75;62.10
7178;BME280;3630;42.146;24.756;2022-07-29T01:46:59;99497.75;;;24.70;61.89
7178;BME280;3630;42.146;24.756;2022-07-29T01:49:28;99493.47;;;24.67;62.03
7178;BME280;3630;42.146;24.756;2022-07-29T01:52:00;99490.09;;;24.64;62.41
7178;BME280;3630;42.146;24.756;2022-07-29T01:54:32;99486.78;;;24.60;62.41
7178;BME280;3630;42.146;24.756;2022-07-29T01:57:01;99494.03;;;24.54;62.95
7178;BME280;3630;42.146;24.756;2022-07-29T01:59:33;99491.22;;;24.58;62.79
7178;BME280;3630;42.146;24.756;2022-07-29T02:02:04;99488.53;;;24.60;62.70
7178;BME280;3630;42.146;24.756;2022-07-29T02:04:35;99486.03;;;24.57;62.61
7178;BME280;3630;42.146;24.756;2022-07-29T02:07:05;99494.81;;;24.56;62.40
7178;BME280;3630;42.146;24.756;2022-07-29T02:09:35;99494.03;;;24.54;62.99
7178;BME280;3630;42.146;24.756;2022-07-29T02:12:04;99484.47;;;24.53;63.21
7178;BME280;3630;42.146;24.756;2022-07-29T02:14:39;99483.41;;;24.57;63.23
7178;BME280;3630;42.146;24.756;2022-07-29T02:17:07;99491.41;;;24.54;63.10
7178;BME280;3630;42.146;24.756;2022-07-29T02:19:37;99488.66;;;24.57;63.35
7178;BME280;3630;42.146;24.756;2022-07-29T02:22:05;99489.75;;;24.51;63.43
7178;BME280;3630;42.146;24.756;2022-07-29T02:24:33;99494.81;;;24.56;62.90
7178;BME280;3630;42.146;24.756;2022-07-29T02:27:02;99492.38;;;24.51;63.15
7178;BME280;3630;42.146;24.756;2022-07-29T02:29:31;99490.13;;;24.42;63.43
7178;BME280;3630;42.146;24.756;2022-07-29T02:32:01;99481.53;;;24.39;63.83
7178;BME280;3630;42.146;24.756;2022-07-29T02:34:29;99471.84;;;24.39;63.59
7178;BME280;3630;42.146;24.756;2022-07-29T02:36:58;99483.47;;;24.34;63.71
7178;BME280;3630;42.146;24.756;2022-07-29T02:39:27;99483.41;;;24.35;63.76
7178;BME280;3630;42.146;24.756;2022-07-29T02:42:00;99479.25;;;24.30;64.15
7178;BME280;3630;42.146;24.756;2022-07-29T02:44:28;99478.59;;;24.25;64.07
7178;BME280;3630;42.146;24.756;2022-07-29T02:47:02;99478.72;;;24.22;64.59
7178;BME280;3630;42.146;24.756;2022-07-29T02:49:35;99473.56;;;24.19;65.27
7178;BME280;3630;42.146;24.756;2022-07-29T02:52:04;99479.81;;;24.16;64.91
7178;BME280;3630;42.146;24.756;2022-07-29T02:54:38;99482.47;;;24.15;64.81
7178;BME280;3630;42.146;24.756;2022-07-29T02:57:10;99476.56;;;24.10;64.62
7178;BME280;3630;42.146;24.756;2022-07-29T02:59:41;99482.06;;;24.02;64.04
7178;BME280;3630;42.146;24.756;2022-07-29T03:02:12;99481.97;;;24.05;63.89
7178;BME280;3630;42.146;24.756;2022-07-29T03:04:41;99480.09;;;24.08;63.76
7178;BME280;3630;42.146;24.756;2022-07-29T03:07:11;99486.16;;;24.11;63.68
7178;BME280;3630;42.146;24.756;2022-07-29T03:09:40;99486.31;;;24.06;63.33
7178;BME280;3630;42.146;24.756;2022-07-29T03:12:08;99487.13;;;24.06;62.96
7178;BME280;3630;42.146;24.756;2022-07-29T03:14:36;99483.56;;;24.09;62.90
7178;BME280;3630;42.146;24.756;2022-07-29T03:17:05;99483.72;;;24.04;63.27
7178;BME280;3630;42.146;24.756;2022-07-29T03:19:33;99483.72;;;24.04;63.39
7178;BME280;3630;42.146;24.756;2022-07-29T03:22:01;99490.81;;;24.02;63.94
7178;BME280;3630;42.146;24.756;2022-07-29T03:24:30;99497.81;;;24.02;63.75
7178;BME280;3630;42.146;24.756;2022-07-29T03:26:57;99498.88;;;23.98;63.96
7178;BME280;3630;42.146;24.756;2022-07-29T03:29:25;99469.78;;;23.81;63.85
7178;BME280;3630;42.146;24.756;2022-07-29T03:31:52;99504.25;;;23.95;63.58
7178;BME280;3630;42.146;24.756;2022-07-29T03:34:19;99505.13;;;23.94;63.26
7178;BME280;3630;42.146;24.756;2022-07-29T03:36:47;99498.91;;;23.96;63.17
7178;BME280;3630;42.146;24.756;2022-07-29T03:39:17;99499.66;;;24.00;62.97
7178;BME280;3630;42.146;24.756;2022-07-29T03:41:46;99509.19;;;24.02;63.08
7178;BME280;3630;42.146;24.756;2022-07-29T03:44:15;99506.78;;;23.96;63.21
7178;BME280;3630;42.146;24.756;2022-07-29T03:46:43;99511.06;;;23.99;63.17
7178;BME280;3630;42.146;24.756;2022-07-29T03:49:15;99479.22;;;23.85;62.37
7178;BME280;3630;42.146;24.756;2022-07-29T03:51:43;99507.69;;;23.95;62.35
7178;BME280;3630;42.146;24.756;2022-07-29T03:54:12;99507.53;;;24.00;61.89
7178;BME280;3630;42.146;24.756;2022-07-29T03:56:41;99513.75;;;23.97;62.24
7178;BME280;3630;42.146;24.756;2022-07-29T03:59:12;99515.56;;;23.95;62.14
7178;BME280;3630;42.146;24.756;2022-07-29T04:01:39;99508.44;;;23.99;61.58
7178;BME280;3630;42.146;24.756;2022-07-29T04:04:07;99516.50;;;23.94;61.40
7178;BME280;3630;42.146;24.756;2022-07-29T04:06:38;99517.34;;;23.95;61.98
7178;BME280;3630;42.146;24.756;2022-07-29T04:09:05;99517.09;;;24.01;61.17
7178;BME280;3630;42.146;24.756;2022-07-29T04:11:34;99520.03;;;23.93;61.97
7178;BME280;3630;42.146;24.756;2022-07-29T04:14:02;99519.91;;;23.96;62.50
7178;BME280;3630;42.146;24.756;2022-07-29T04:16:29;99527.69;;;23.99;62.66
7178;BME280;3630;42.146;24.756;2022-07-29T04:18:56;99532.06;;;23.99;62.68
7178;BME280;3630;42.146;24.756;2022-07-29T04:21:22;99530.53;;;23.93;63.24
7178;BME280;3630;42.146;24.756;2022-07-29T04:23:50;99528.84;;;23.92;63.25
7178;BME280;3630;42.146;24.756;2022-07-29T04:26:17;99532.13;;;23.97;63.51
7178;BME280;3630;42.146;24.756;2022-07-29T04:28:45;99534.91;;;23.93;63.42
7178;BME280;3630;42.146;24.756;2022-07-29T04:31:13;99530.41;;;23.96;63.97
7178;BME280;3630;42.146;24.756;2022-07-29T04:33:39;99527.91;;;23.93;63.48
7178;BME280;3630;42.146;24.756;2022-07-29T04:36:06;99526.25;;;23.91;63.38
7178;BME280;3630;42.146;24.756;2022-07-29T04:38:33;99530.47;;;23.95;63.32
7178;BME280;3630;42.146;24.756;2022-07-29T04:41:00;99525.06;;;23.99;62.91
7178;BME280;3630;42.146;24.756;2022-07-29T04:43:27;99525.94;;;23.98;62.95
7178;BME280;3630;42.146;24.756;2022-07-29T04:45:55;99533.22;;;23.92;62.56
7178;BME280;3630;42.146;24.756;2022-07-29T04:48:22;99539.06;;;23.98;62.49
7178;BME280;3630;42.146;24.756;2022-07-29T04:50:49;99546.81;;;24.03;61.39
7178;BME280;3630;42.146;24.756;2022-07-29T04:53:16;99548.38;;;24.07;60.76
7178;BME280;3630;42.146;24.756;2022-07-29T04:55:42;99544.00;;;24.07;61.06
7178;BME280;3630;42.146;24.756;2022-07-29T04:58:10;99547.44;;;24.10;61.30
7178;BME280;3630;42.146;24.756;2022-07-29T05:00:37;99547.31;;;24.13;61.32
7178;BME280;3630;42.146;24.756;2022-07-29T05:03:05;99541.72;;;24.22;61.19
7178;BME280;3630;42.146;24.756;2022-07-29T05:05:33;99542.41;;;24.27;61.06
7178;BME280;3630;42.146;24.756;2022-07-29T05:08:00;99546.66;;;24.31;61.74
7178;BME280;3630;42.146;24.756;2022-07-29T05:10:27;99549.13;;;24.34;61.20
7178;BME280;3630;42.146;24.756;2022-07-29T05:12:54;99552.38;;;24.40;61.97
7178;BME280;3630;42.146;24.756;2022-07-29T05:15:20;99549.31;;;24.51;61.37
7178;BME280;3630;42.146;24.756;2022-07-29T05:17:47;99549.22;;;24.54;61.75
7178;BME280;3630;42.146;24.756;2022-07-29T05:20:15;99561.13;;;24.62;61.61
7178;BME280;3630;42.146;24.756;2022-07-29T05:22:43;99556.63;;;24.66;61.31
7178;BME280;3630;42.146;24.756;2022-07-29T05:25:10;99563.13;;;24.79;60.89
7178;BME280;3630;42.146;24.756;2022-07-29T05:27:37;99555.97;;;24.83;60.37
7178;BME280;3630;42.146;24.756;2022-07-29T05:30:05;99546.00;;;24.91;59.65
7178;BME280;3630;42.146;24.756;2022-07-29T05:32:31;99560.25;;;25.05;59.77
7178;BME280;3630;42.146;24.756;2022-07-29T05:34:58;99555.69;;;25.10;58.43
7178;BME280;3630;42.146;24.756;2022-07-29T05:37:26;99560.16;;;25.29;57.95
7178;BME280;3630;42.146;24.756;2022-07-29T05:39:53;99564.09;;;25.39;57.88
7178;BME280;3630;42.146;24.756;2022-07-29T05:42:20;99549.84;;;25.44;57.26
7178;BME280;3630;42.146;24.756;2022-07-29T05:44:47;99559.28;;;25.50;57.07
7178;BME280;3630;42.146;24.756;2022-07-29T05:47:14;99559.75;;;25.59;56.89
7178;BME280;3630;42.146;24.756;2022-07-29T05:49:41;99563.75;;;25.68;56.25
7178;BME280;3630;42.146;24.756;2022-07-29T05:52:08;99568.72;;;25.74;56.37
7178;BME280;3630;42.146;24.756;2022-07-29T05:54:36;99577.16;;;25.82;56.45
7178;BME280;3630;42.146;24.756;2022-07-29T05:57:03;99580.13;;;25.93;55.69
7178;BME280;3630;42.146;24.756;2022-07-29T05:59:31;99585.13;;;25.99;55.69
7178;BME280;3630;42.146;24.756;2022-07-29T06:01:57;99578.56;;;26.09;55.37
7178;BME280;3630;42.146;24.756;2022-07-29T06:04:24;99571.19;;;26.17;54.96
7178;BME280;3630;42.146;24.756;2022-07-29T06:06:51;99522.06;;;25.96;54.94
7178;BME280;3630;42.146;24.756;2022-07-29T06:09:18;99570.59;;;26.29;55.27
7178;BME280;3630;42.146;24.756;2022-07-29T06:11:46;99566.13;;;26.31;55.62
7178;BME280;3630;42.146;24.756;2022-07-29T06:14:13;99580.94;;;26.34;55.51
7178;BME280;3630;42.146;24.756;2022-07-29T06:16:40;99571.81;;;26.41;55.60
7178;BME280;3630;42.146;24.756;2022-07-29T06:19:08;99574.03;;;26.31;55.69
7178;BME280;3630;42.146;24.756;2022-07-29T06:21:34;99572.31;;;26.30;56.09
7178;BME280;3630;42.146;24.756;2022-07-29T06:24:01;99576.13;;;26.23;56.28
7178;BME280;3630;42.146;24.756;2022-07-29T06:26:28;99569.53;;;26.33;56.29
7178;BME280;3630;42.146;24.756;2022-07-29T06:28:56;99571.94;;;26.38;56.31
7178;BME280;3630;42.146;24.756;2022-07-29T06:31:24;99572.16;;;26.52;56.10
7178;BME280;3630;42.146;24.756;2022-07-29T06:33:50;99574.03;;;26.50;55.79
7178;BME280;3630;42.146;24.756;2022-07-29T06:36:18;99571.16;;;26.55;55.49
7178;BME280;3630;42.146;24.756;2022-07-29T06:38:45;99570.88;;;26.61;55.42
7178;BME280;3630;42.146;24.756;2022-07-29T06:41:11;99569.09;;;26.80;55.48
7178;BME280;3630;42.146;24.756;2022-07-29T06:43:42;99561.97;;;26.99;55.13
7178;BME280;3630;42.146;24.756;2022-07-29T06:46:11;99561.53;;;27.08;54.27
7178;BME280;3630;42.146;24.756;2022-07-29T06:48:39;99572.22;;;27.05;54.44
7178;BME280;3630;42.146;24.756;2022-07-29T06:51:07;99561.91;;;27.18;53.89
7178;BME280;3630;42.146;24.756;2022-07-29T06:53:35;99564.22;;;27.07;54.07
7178;BME280;3630;42.146;24.756;2022-07-29T06:56:04;99566.81;;;27.08;54.30
7178;BME280;3630;42.146;24.756;2022-07-29T06:58:31;99555.78;;;27.17;54.49
7178;BME280;3630;42.146;24.756;2022-07-29T07:01:01;99550.75;;;27.30;55.16
7178;BME280;3630;42.146;24.756;2022-07-29T07:03:30;99551.59;;;27.47;54.31
7178;BME280;3630;42.146;24.756;2022-07-29T07:05:58;99552.75;;;27.59;53.14
7178;BME280;3630;42.146;24.756;2022-07-29T07:08:24;99551.13;;;27.57;53.07
7178;BME280;3630;42.146;24.756;2022-07-29T07:10:52;99553.63;;;27.42;52.97
7178;BME280;3630;42.146;24.756;2022-07-29T07:13:19;99550.25;;;27.39;53.34
7178;BME280;3630;42.146;24.756;2022-07-29T07:15:46;99547.47;;;27.59;53.21
7178;BME280;3630;42.146;24.756;2022-07-29T07:18:14;99551.19;;;27.72;52.64
7178;BME280;3630;42.146;24.756;2022-07-29T07:20:43;99553.59;;;27.77;52.58
7178;BME280;3630;42.146;24.756;2022-07-29T07:23:10;99545.50;;;27.80;52.20
7178;BME280;3630;42.146;24.756;2022-07-29T07:25:37;99557.34;;;27.88;52.22
7178;BME280;3630;42.146;24.756;2022-07-29T07:28:04;99563.63;;;28.03;51.51
7178;BME280;3630;42.146;24.756;2022-07-29T07:30:31;99547.31;;;28.12;50.64
7178;BME280;3630;42.146;24.756;2022-07-29T07:32:58;99553.50;;;28.27;49.02
7178;BME280;3630;42.146;24.756;2022-07-29T07:35:26;99546.88;;;28.35;47.60
7178;BME280;3630;42.146;24.756;2022-07-29T07:37:55;99552.00;;;28.38;47.36
7178;BME280;3630;42.146;24.756;2022-07-29T07:40:24;99557.38;;;28.52;47.41
7178;BME280;3630;42.146;24.756;2022-07-29T07:42:50;99552.88;;;28.70;47.74
7178;BME280;3630;42.146;24.756;2022-07-29T07:45:17;99553.19;;;28.80;46.27
7178;BME280;3630;42.146;24.756;2022-07-29T07:47:44;99547.28;;;28.90;45.78
7178;BME280;3630;42.146;24.756;2022-07-29T07:50:12;99545.03;;;28.98;45.66
7178;BME280;3630;42.146;24.756;2022-07-29T07:52:46;99550.31;;;28.98;45.02
7178;BME280;3630;42.146;24.756;2022-07-29T07:55:15;99548.94;;;29.07;45.24
7178;BME280;3630;42.146;24.756;2022-07-29T07:57:43;99542.44;;;29.12;44.62
7178;BME280;3630;42.146;24.756;2022-07-29T08:00:10;99551.75;;;29.19;44.10
7178;BME280;3630;42.146;24.756;2022-07-29T08:02:38;99536.22;;;29.13;43.06
7178;BME280;3630;42.146;24.756;2022-07-29T08:05:06;99538.50;;;29.19;41.88
7178;BME280;3630;42.146;24.756;2022-07-29T08:07:33;99539.91;;;29.11;41.05
7178;BME280;3630;42.146;24.756;2022-07-29T08:10:00;99539.28;;;29.21;40.78
7178;BME280;3630;42.146;24.756;2022-07-29T08:12:28;99536.75;;;29.34;40.66
7178;BME280;3630;42.146;24.756;2022-07-29T08:14:55;99537.22;;;29.27;40.87
7178;BME280;3630;42.146;24.756;2022-07-29T08:17:22;99541.41;;;29.31;39.15
7178;BME280;3630;42.146;24.756;2022-07-29T08:19:48;99535.06;;;29.33;39.46
7178;BME280;3630;42.146;24.756;2022-07-29T08:22:15;99543.47;;;29.40;39.72
7178;BME280;3630;42.146;24.756;2022-07-29T08:24:42;99550.78;;;29.36;38.82
7178;BME280;3630;42.146;24.756;2022-07-29T08:27:09;99549.09;;;29.19;38.75
7178;BME280;3630;42.146;24.756;2022-07-29T08:29:38;99547.53;;;29.31;39.84
7178;BME280;3630;42.146;24.756;2022-07-29T08:32:05;99545.03;;;29.58;37.73
7178;BME280;3630;42.146;24.756;2022-07-29T08:34:32;99535.97;;;29.76;37.94
7178;BME280;3630;42.146;24.756;2022-07-29T08:36:59;99528.53;;;29.83;37.58
7178;BME280;3630;42.146;24.756;2022-07-29T08:39:26;99524.84;;;29.99;37.06
7178;BME280;3630;42.146;24.756;2022-07-29T08:41:53;99525.19;;;30.07;36.17
7178;BME280;3630;42.146;24.756;2022-07-29T08:44:20;99524.53;;;30.18;37.12
7178;BME280;3630;42.146;24.756;2022-07-29T08:46:49;99525.44;;;30.31;35.96
7178;BME280;3630;42.146;24.756;2022-07-29T08:49:16;99517.38;;;30.47;36.47
7178;BME280;3630;42.146;24.756;2022-07-29T08:51:43;99469.72;;;30.18;35.13
7178;BME280;3630;42.146;24.756;2022-07-29T08:54:11;99517.97;;;30.64;35.16
7178;BME280;3630;42.146;24.756;2022-07-29T08:56:42;99513.91;;;30.85;34.39
7178;BME280;3630;42.146;24.756;2022-07-29T08:59:10;99506.22;;;30.95;33.01
7178;BME280;3630;42.146;24.756;2022-07-29T09:01:38;99507.34;;;30.91;31.91
7178;BME280;3630;42.146;24.756;2022-07-29T09:04:10;99501.66;;;30.97;33.38
7178;BME280;3630;42.146;24.756;2022-07-29T09:06:42;99501.56;;;30.99;33.90
7178;BME280;3630;42.146;24.756;2022-07-29T09:09:09;99497.28;;;30.96;33.09
7178;BME280;3630;42.146;24.756;2022-07-29T09:11:37;99481.00;;;30.88;33.45
7178;BME280;3630;42.146;24.756;2022-07-29T09:14:04;99499.50;;;30.89;32.12
7178;BME280;3630;42.146;24.756;2022-07-29T09:16:45;99490.38;;;30.93;33.25
7178;BME280;3630;42.146;24.756;2022-07-29T09:19:21;99491.81;;;31.12;33.78
7178;BME280;3630;42.146;24.756;2022-07-29T09:21:48;99487.97;;;31.16;33.44
7178;BME280;3630;42.146;24.756;2022-07-29T09:24:25;99486.91;;;31.18;33.61
7178;BME280;3630;42.146;24.756;2022-07-29T09:26:52;99482.53;;;31.05;32.05
7178;BME280;3630;42.146;24.756;2022-07-29T09:29:21;99476.84;;;31.11;32.36
7178;BME280;3630;42.146;24.756;2022-07-29T09:31:50;99482.56;;;31.30;32.45
7178;BME280;3630;42.146;24.756;2022-07-29T09:34:23;99475.13;;;31.35;31.52
7178;BME280;3630;42.146;24.756;2022-07-29T09:36:51;99477.84;;;31.47;31.83
7178;BME280;3630;42.146;24.756;2022-07-29T09:39:27;99482.63;;;31.55;31.09
7178;BME280;3630;42.146;24.756;2022-07-29T09:41:56;99474.22;;;31.61;31.24
7178;BME280;3630;42.146;24.756;2022-07-29T09:44:24;99479.84;;;31.69;31.63
7178;BME280;3630;42.146;24.756;2022-07-29T09:46:55;99479.16;;;31.78;31.55
7178;BME280;3630;42.146;24.756;2022-07-29T09:49:25;99466.88;;;31.77;31.64
7178;BME280;3630;42.146;24.756;2022-07-29T09:52:06;99473.56;;;31.83;31.40
7178;BME280;3630;42.146;24.756;2022-07-29T09:54:34;99472.91;;;31.79;30.99
7178;BME280;3630;42.146;24.756;2022-07-29T09:57:04;99471.84;;;31.94;31.36
7178;BME280;3630;42.146;24.756;2022-07-29T09:59:32;99460.84;;;31.99;29.76
7178;BME280;3630;42.146;24.756;2022-07-29T10:01:59;99414.09;;;31.84;29.25
7178;BME280;3630;42.146;24.756;2022-07-29T10:04:42;99452.13;;;32.09;28.74
7178;BME280;3630;42.146;24.756;2022-07-29T10:07:09;99463.19;;;32.16;28.98
7178;BME280;3630;42.146;24.756;2022-07-29T10:09:36;99464.41;;;32.23;29.70
7178;BME280;3630;42.146;24.756;2022-07-29T10:12:07;99464.38;;;32.36;29.26
7178;BME280;3630;42.146;24.756;2022-07-29T10:14:36;99463.09;;;32.41;28.67
7178;BME280;3630;42.146;24.756;2022-07-29T10:17:04;99459.84;;;32.49;28.81
7178;BME280;3630;42.146;24.756;2022-07-29T10:19:33;99463.47;;;32.48;26.84
7178;BME280;3630;42.146;24.756;2022-07-29T10:22:03;99461.78;;;32.47;28.31
7178;BME280;3630;42.146;24.756;2022-07-29T10:24:31;99455.97;;;32.53;28.47
7178;BME280;3630;42.146;24.756;2022-07-29T10:27:00;99456.91;;;32.64;28.44
7178;BME280;3630;42.146;24.756;2022-07-29T10:29:28;99449.66;;;32.66;28.65
7178;BME280;3630;42.146;24.756;2022-07-29T10:32:16;99400.88;;;32.31;28.82
7178;BME280;3630;42.146;24.756;2022-07-29T10:35:01;99427.41;;;32.67;29.21
7178;BME280;3630;42.146;24.756;2022-07-29T10:37:45;99442.47;;;32.80;28.76
7178;BME280;3630;42.146;24.756;2022-07-29T10:40:20;99435.44;;;32.79;28.50
7178;BME280;3630;42.146;24.756;2022-07-29T10:43:16;99437.84;;;32.71;29.29
7178;BME280;3630;42.146;24.756;2022-07-29T10:45:45;99427.84;;;32.85;30.77
7178;BME280;3630;42.146;24.756;2022-07-29T10:48:13;99425.94;;;32.98;29.01
7178;BME280;3630;42.146;24.756;2022-07-29T10:50:57;99421.69;;;32.96;29.29
7178;BME280;3630;42.146;24.756;2022-07-29T10:53:46;99416.69;;;33.15;29.67
7178;BME280;3630;42.146;24.756;2022-07-29T10:56:23;99415.34;;;33.09;28.00
7178;BME280;3630;42.146;24.756;2022-07-29T10:59:23;99401.78;;;33.12;28.80
7178;BME280;3630;42.146;24.756;2022-07-29T11:01:52;99405.44;;;33.22;29.71
7178;BME280;3630;42.146;24.756;2022-07-29T11:07:20;99398.38;;;33.21;29.42
7178;BME280;3630;42.146;24.756;2022-07-29T11:10:22;99388.47;;;33.23;29.26
7178;BME280;3630;42.146;24.756;2022-07-29T11:12:49;99395.25;;;33.28;29.71
7178;BME280;3630;42.146;24.756;2022-07-29T11:15:19;99390.78;;;33.28;30.14
7178;BME280;3630;42.146;24.756;2022-07-29T11:18:06;99385.44;;;33.28;29.30
7178;BME280;3630;42.146;24.756;2022-07-29T11:20:38;99379.88;;;33.31;29.19
7178;BME280;3630;42.146;24.756;2022-07-29T11:23:21;99379.25;;;33.16;28.92
7178;BME280;3630;42.146;24.756;2022-07-29T11:26:19;99386.06;;;33.20;29.93
7178;BME280;3630;42.146;24.756;2022-07-29T11:28:53;99385.38;;;32.95;30.50
7178;BME280;3630;42.146;24.756;2022-07-29T11:31:33;99380.03;;;32.84;30.67
7178;BME280;3630;42.146;24.756;2022-07-29T11:34:19;99371.97;;;32.96;30.99
7178;BME280;3630;42.146;24.756;2022-07-29T11:37:18;99382.00;;;33.04;30.65
7178;BME280;3630;42.146;24.756;2022-07-29T11:39:46;99374.13;;;33.02;30.67
7178;BME280;3630;42.146;24.756;2022-07-29T11:42:45;99369.47;;;33.28;30.60
7178;BME280;3630;42.146;24.756;2022-07-29T11:45:17;99364.38;;;33.47;30.14
7178;BME280;3630;42.146;24.756;2022-07-29T11:47:50;99357.34;;;33.46;29.95
7178;BME280;3630;42.146;24.756;2022-07-29T11:50:28;99344.78;;;33.26;29.95
7178;BME280;3630;42.146;24.756;2022-07-29T11:52:55;99347.31;;;33.16;29.16
7178;BME280;3630;42.146;24.756;2022-07-29T11:55:23;99340.78;;;33.32;29.39
7178;BME280;3630;42.146;24.756;2022-07-29T11:57:53;99342.81;;;33.50;29.71
7178;BME280;3630;42.146;24.756;2022-07-29T12:00:27;99348.25;;;33.60;29.34
7178;BME280;3630;42.146;24.756;2022-07-29T12:02:55;99341.53;;;33.88;29.17
7178;BME280;3630;42.146;24.756;2022-07-29T12:05:37;99344.31;;;34.08;28.86
7178;BME280;3630;42.146;24.756;2022-07-29T12:08:05;99340.41;;;34.12;29.56
7178;BME280;3630;42.146;24.756;2022-07-29T12:10:33;99327.25;;;34.20;28.15
7178;BME280;3630;42.146;24.756;2022-07-29T12:13:01;99334.97;;;34.34;28.62
7178;BME280;3630;42.146;24.756;2022-07-29T12:15:29;99330.06;;;34.19;28.11
7178;BME280;3630;42.146;24.756;2022-07-29T12:17:56;99314.53;;;34.24;28.02
7178;BME280;3630;42.146;24.756;2022-07-29T12:20:25;99327.75;;;34.46;28.67
7178;BME280;3630;42.146;24.756;2022-07-29T12:22:52;99322.38;;;34.57;28.45
7178;BME280;3630;42.146;24.756;2022-07-29T12:25:21;99323.69;;;34.63;26.74
7178;BME280;3630;42.146;24.756;2022-07-29T12:27:58;99320.22;;;34.72;27.47
7178;BME280;3630;42.146;24.756;2022-07-29T12:30:34;99325.44;;;34.73;26.98
7178;BME280;3630;42.146;24.756;2022-07-29T12:33:14;99326.66;;;34.90;27.41
7178;BME280;3630;42.146;24.756;2022-07-29T12:35:43;99324.75;;;35.02;27.37
7178;BME280;3630;42.146;24.756;2022-07-29T12:38:11;99316.09;;;35.09;27.24
7178;BME280;3630;42.146;24.756;2022-07-29T12:40:38;99316.69;;;35.13;27.97
7178;BME280;3630;42.146;24.756;2022-07-29T12:43:07;99301.94;;;35.18;27.27
7178;BME280;3630;42.146;24.756;2022-07-29T12:45:36;99318.84;;;35.28;26.35
7178;BME280;3630;42.146;24.756;2022-07-29T12:48:03;99308.13;;;34.98;26.50
7178;BME280;3630;42.146;24.756;2022-07-29T12:50:30;99311.97;;;35.05;26.18
7178;BME280;3630;42.146;24.756;2022-07-29T12:53:08;99294.34;;;35.23;27.18
7178;BME280;3630;42.146;24.756;2022-07-29T12:55:44;99287.63;;;35.38;27.19
7178;BME280;3630;42.146;24.756;2022-07-29T12:58:24;99300.28;;;35.36;26.79
7178;BME280;3630;42.146;24.756;2022-07-29T13:01:00;99298.75;;;35.34;26.45
7178;BME280;3630;42.146;24.756;2022-07-29T13:03:27;99296.81;;;35.45;26.87
7178;BME280;3630;42.146;24.756;2022-07-29T13:05:54;99292.34;;;35.56;26.07
7178;BME280;3630;42.146;24.756;2022-07-29T13:08:21;99285.00;;;35.48;26.51
7178;BME280;3630;42.146;24.756;2022-07-29T13:10:48;99282.91;;;35.51;26.86
7178;BME280;3630;42.146;24.756;2022-07-29T13:13:15;99275.69;;;35.52;26.31
7178;BME280;3630;42.146;24.756;2022-07-29T13:15:43;99282.16;;;35.40;26.85
7178;BME280;3630;42.146;24.756;2022-07-29T13:18:29;99281.31;;;35.39;27.02
7178;BME280;3630;42.146;24.756;2022-07-29T13:20:58;99271.59;;;35.38;26.72
7178;BME280;3630;42.146;24.756;2022-07-29T13:23:36;99269.81;;;35.48;26.34
7178;BME280;3630;42.146;24.756;2022-07-29T13:26:05;99263.19;;;35.52;27.13
7178;BME280;3630;42.146;24.756;2022-07-29T13:28:32;99264.78;;;35.74;27.30